createdAt,value
2018-07-08T12:43:45.823Z,19.23
2018-07-08T12:44:45.907Z,19.23
2018-07-08T12:45:45.838Z,19.82
2018-07-08T12:46:45.866Z,19.15
2018-07-08T12:47:45.878Z,19.26
2018-07-08T12:48:45.903Z,18.39
2018-07-08T12:49:45.918Z,17.80
2018-07-08T12:50:45.948Z,17.51
2018-07-08T12:51:45.975Z,18.49
2018-07-08T12:52:45.986Z,19.07
2018-07-08T12:53:46.010Z,19.07
2018-07-08T12:54:46.045Z,19.26
2018-07-08T12:55:46.063Z,19.93
2018-07-08T12:56:46.073Z,20.51
2018-07-08T12:57:46.128Z,20.53
2018-07-08T12:58:46.182Z,20.62
2018-07-08T12:59:46.135Z,20.53
2018-07-08T13:00:46.158Z,19.65
2018-07-08T13:01:46.184Z,19.26
2018-07-08T13:02:46.196Z,19.34
2018-07-08T13:03:46.216Z,19.44
2018-07-08T13:04:46.241Z,18.56
2018-07-08T13:05:46.265Z,18.66
2018-07-08T13:06:46.329Z,18.57
2018-07-08T13:07:46.310Z,18.66
2018-07-08T13:08:46.325Z,18.46
2018-07-08T13:09:46.364Z,19.06
2018-07-08T13:10:46.375Z,20.04
2018-07-08T13:11:46.408Z,19.93
2018-07-08T13:12:46.429Z,19.44
2018-07-08T13:13:46.441Z,19.44
2018-07-08T13:14:46.461Z,19.84
2018-07-08T13:15:46.487Z,19.85
2018-07-08T13:16:46.503Z,20.06
2018-07-08T13:17:46.528Z,19.68
2018-07-08T13:18:46.544Z,19.84
2018-07-08T13:19:46.569Z,19.85
2018-07-08T13:20:46.589Z,19.47
2018-07-08T13:21:46.604Z,19.95
2018-07-08T13:22:46.629Z,20.34
2018-07-08T13:23:46.656Z,20.34
2018-07-08T13:24:46.686Z,19.45
2018-07-08T13:25:46.718Z,19.26
2018-07-08T13:26:46.718Z,19.44
2018-07-08T13:27:46.750Z,19.34
2018-07-08T13:28:46.780Z,19.34
2018-07-08T13:29:46.786Z,19.24
2018-07-08T13:30:46.809Z,19.35
2018-07-08T13:31:46.831Z,19.65
2018-07-08T13:32:46.847Z,19.27
2018-07-08T13:33:46.872Z,19.38
2018-07-08T13:34:46.897Z,18.99
2018-07-08T13:35:46.916Z,18.99
2018-07-08T13:36:46.963Z,19.10
2018-07-08T13:37:46.990Z,18.82
2018-07-08T13:38:47.003Z,18.52
2018-07-08T13:39:47.006Z,18.24
2018-07-08T13:40:47.031Z,18.90
2018-07-08T13:41:47.057Z,19.20
2018-07-08T13:42:47.156Z,19.87
2018-07-08T13:43:47.100Z,19.87
2018-07-08T13:44:47.122Z,20.34
2018-07-08T13:45:47.134Z,21.31
2018-07-08T13:46:47.164Z,21.90
2018-07-08T13:47:47.182Z,21.23
2018-07-08T13:48:47.200Z,20.75
2018-07-08T13:49:47.216Z,20.92
2018-07-08T13:50:47.245Z,20.83
2018-07-08T13:51:47.266Z,20.83
2018-07-08T13:52:47.300Z,20.55
2018-07-08T13:53:47.312Z,20.27
2018-07-08T13:54:47.327Z,19.87
2018-07-08T13:55:47.369Z,19.98
2018-07-08T13:56:47.374Z,20.47
2018-07-08T13:57:47.399Z,21.23
2018-07-08T13:58:47.422Z,21.11
2018-07-08T13:59:47.461Z,22.39
2018-07-08T14:00:47.474Z,22.97
2018-07-08T14:01:47.490Z,22.88
2018-07-08T14:02:47.511Z,22.30
2018-07-08T14:03:47.535Z,22.01
2018-07-08T14:04:47.552Z,22.27
2018-07-08T14:05:47.571Z,23.60
2018-07-08T14:06:47.598Z,24.68
2018-07-08T14:07:47.611Z,24.40
2018-07-08T14:08:47.636Z,23.25
2018-07-08T14:09:47.663Z,23.64
2018-07-08T14:10:47.685Z,22.49
2018-07-08T14:11:47.706Z,21.42
2018-07-08T14:12:47.719Z,21.15
2018-07-08T14:14:47.855Z,19.50
2018-07-08T14:15:47.789Z,18.80
2018-07-08T14:16:47.808Z,18.99
2018-07-08T14:17:47.834Z,19.36
2018-07-08T14:19:47.878Z,19.85
2018-07-08T14:20:48.034Z,19.57
2018-07-08T14:21:47.918Z,19.76
2018-07-08T14:22:47.950Z,19.74
2018-07-08T14:23:47.963Z,20.23
2018-07-08T14:24:47.989Z,20.92
2018-07-08T14:25:48.012Z,20.26
2018-07-08T14:26:48.026Z,19.30
2018-07-08T14:27:48.062Z,19.12
2018-07-08T14:28:48.085Z,18.63
2018-07-08T14:29:48.096Z,18.54
2018-07-08T14:30:48.138Z,18.75
2018-07-08T14:31:48.142Z,18.16
2018-07-08T14:33:48.205Z,18.14
2018-07-08T14:34:48.233Z,18.44
2018-07-08T14:35:48.231Z,18.61
2018-07-08T14:36:48.263Z,19.28
2018-07-08T14:37:48.279Z,19.78
2018-07-08T14:38:48.291Z,19.78
2018-07-08T14:39:48.336Z,19.79
2018-07-08T14:40:48.441Z,19.52
2018-07-08T14:41:48.366Z,19.42
2018-07-08T14:42:48.397Z,19.03
2018-07-08T14:43:48.418Z,18.65
2018-07-08T14:44:48.445Z,18.47
2018-07-08T14:45:48.461Z,18.27
2018-07-08T14:46:48.481Z,18.28
2018-07-08T14:47:48.510Z,17.49
2018-07-08T14:48:48.526Z,17.86
2018-07-08T14:49:48.567Z,18.84
2018-07-08T14:50:48.569Z,19.87
2018-07-08T14:51:48.583Z,20.95
2018-07-08T14:52:48.685Z,20.97
2018-07-08T14:53:48.624Z,20.39
2018-07-08T14:54:48.661Z,20.27
2018-07-08T14:55:48.702Z,21.71
2018-07-08T14:56:48.701Z,22.49
2018-07-08T14:57:48.709Z,22.01
2018-07-08T14:58:48.748Z,21.44
2018-07-08T14:59:48.761Z,20.76
2018-07-08T15:00:48.778Z,19.98
2018-07-08T15:01:48.805Z,19.78
2018-07-08T15:02:48.815Z,20.89
2018-07-08T15:03:48.841Z,23.11
2018-07-08T15:04:48.879Z,24.21
2018-07-08T15:05:48.897Z,23.84
2018-07-08T15:06:48.910Z,23.17
2018-07-08T15:07:48.918Z,22.96
2018-07-08T15:08:48.943Z,23.25
2018-07-08T15:09:48.989Z,22.96
2018-07-08T15:10:48.985Z,22.27
2018-07-08T15:11:49.008Z,22.37
2018-07-08T15:12:49.031Z,22.37
2018-07-08T15:13:49.066Z,22.94
2018-07-08T15:14:49.107Z,23.15
2018-07-08T15:15:49.135Z,23.13
2018-07-08T15:16:49.109Z,24.00
2018-07-08T15:17:49.123Z,25.13
2018-07-08T15:18:49.149Z,25.71
2018-07-08T15:19:49.167Z,26.10
2018-07-08T15:20:49.190Z,26.00
2018-07-08T15:22:49.222Z,27.15
2018-07-08T15:23:49.234Z,27.34
2018-07-08T15:24:49.268Z,27.62
2018-07-08T15:25:49.288Z,28.38
2018-07-08T15:26:49.401Z,28.85
2018-07-08T15:27:49.342Z,29.14
2018-07-08T15:28:49.350Z,29.32
2018-07-08T15:29:49.384Z,29.71
2018-07-08T15:30:49.382Z,29.13
2018-07-08T15:31:49.403Z,29.42
2018-07-08T15:32:49.428Z,29.52
2018-07-08T15:33:49.480Z,29.02
2018-07-08T15:35:49.486Z,30.18
2018-07-08T15:36:49.512Z,30.76
2018-07-08T15:37:49.515Z,31.33
2018-07-08T15:38:49.541Z,31.82
2018-07-08T15:39:49.561Z,32.31
2018-07-08T15:40:49.572Z,32.21
2018-07-08T15:41:49.588Z,32.29
2018-07-08T15:42:49.609Z,32.40
2018-07-08T15:43:49.629Z,32.21
2018-07-08T15:44:49.647Z,32.01
2018-07-08T15:45:49.680Z,32.29
2018-07-08T15:46:49.733Z,32.09
2018-07-08T15:47:49.688Z,31.80
2018-07-08T15:48:49.706Z,32.09
2018-07-08T15:49:49.746Z,32.09
2018-07-08T15:50:49.755Z,31.98
2018-07-08T15:51:49.781Z,32.28
2018-07-08T15:53:49.793Z,33.06
2018-07-08T15:54:49.812Z,33.33
2018-07-08T15:55:49.855Z,33.33
2018-07-08T15:56:49.851Z,33.33
2018-07-08T15:57:49.875Z,33.43
2018-07-08T15:58:49.870Z,33.70
2018-07-08T15:59:49.884Z,34.09
2018-07-08T16:01:49.947Z,34.47
2018-07-08T16:02:49.957Z,34.47
2018-07-08T16:03:49.966Z,34.47
2018-07-08T16:04:49.976Z,34.76
2018-07-08T16:05:49.990Z,34.95
2018-07-08T16:06:50.023Z,34.56
2018-07-08T16:07:50.026Z,34.56
2018-07-08T16:08:50.040Z,35.42
2018-07-08T16:09:50.054Z,35.71
2018-07-08T16:10:50.072Z,35.81
2018-07-08T16:11:50.120Z,35.71
2018-07-08T16:12:50.118Z,35.81
2018-07-08T16:13:50.122Z,36.00
2018-07-08T16:14:50.143Z,36.38
2018-07-08T16:15:50.194Z,36.18
2018-07-08T16:16:50.177Z,36.28
2018-07-08T16:17:50.201Z,36.28
2018-07-08T16:18:50.223Z,36.40
2018-07-08T16:19:50.218Z,36.30
2018-07-08T16:20:50.241Z,36.30
2018-07-08T16:21:50.258Z,36.10
2018-07-08T16:22:50.280Z,36.47
2018-07-08T16:23:50.300Z,36.69
2018-07-08T16:24:50.403Z,36.67
2018-07-08T16:25:50.374Z,36.47
2018-07-08T16:26:50.329Z,36.85
2018-07-08T16:27:50.395Z,36.94
2018-07-08T16:28:50.371Z,37.52
2018-07-08T16:29:50.390Z,37.43
2018-07-08T16:30:50.399Z,37.34
2018-07-08T16:31:50.407Z,37.26
2018-07-08T16:32:50.434Z,37.16
2018-07-08T16:33:50.452Z,37.26
2018-07-08T16:34:50.464Z,37.16
2018-07-08T16:35:50.536Z,37.35
2018-07-08T16:36:50.503Z,37.14
2018-07-08T16:37:50.507Z,37.24
2018-07-08T16:38:50.524Z,37.34
2018-07-08T16:39:50.549Z,37.24
2018-07-08T16:40:50.557Z,37.14
2018-07-08T16:41:50.576Z,37.24
2018-07-08T16:42:50.587Z,37.22
2018-07-08T16:43:50.605Z,38.48
2018-07-08T16:45:50.647Z,37.80
2018-07-08T16:46:50.655Z,37.99
2018-07-08T16:47:50.680Z,38.09
2018-07-08T16:48:50.683Z,37.99
2018-07-08T16:49:50.702Z,37.51
2018-07-08T16:50:50.721Z,37.22
2018-07-08T16:51:50.747Z,37.22
2018-07-08T16:52:50.742Z,37.02
2018-07-08T16:53:50.765Z,37.32
2018-07-08T16:54:50.775Z,36.83
2018-07-08T16:55:50.797Z,37.22
2018-07-08T16:56:50.817Z,37.22
2018-07-08T16:57:50.827Z,37.32
2018-07-08T16:58:50.855Z,36.73
2018-07-08T16:59:50.861Z,37.32
2018-07-08T17:00:50.873Z,37.41
2018-07-08T17:01:50.884Z,37.41
2018-07-08T17:02:50.912Z,37.70
2018-07-08T17:03:50.924Z,37.80
2018-07-08T17:04:50.932Z,37.99
2018-07-08T17:05:50.955Z,37.60
2018-07-08T17:06:50.961Z,38.39
2018-07-08T17:07:50.975Z,38.39
2018-07-08T17:08:50.991Z,38.09
2018-07-08T17:09:51.021Z,37.99
2018-07-08T17:10:51.041Z,38.29
2018-07-08T17:11:51.056Z,38.19
2018-07-08T17:12:51.088Z,38.75
2018-07-08T17:13:51.076Z,39.34
2018-07-08T17:14:51.100Z,39.53
2018-07-08T17:15:51.103Z,39.62
2018-07-08T17:16:51.121Z,39.90
2018-07-08T17:17:51.135Z,39.90
2018-07-08T17:18:51.157Z,40.00
2018-07-08T17:19:51.187Z,39.90
2018-07-08T17:20:51.180Z,39.80
2018-07-08T17:21:51.201Z,39.90
2018-07-08T17:22:51.236Z,40.29
2018-07-08T17:23:51.242Z,40.11
2018-07-08T17:24:51.265Z,40.01
2018-07-08T17:25:51.258Z,40.01
2018-07-08T17:26:51.290Z,39.53
2018-07-08T17:27:51.297Z,39.53
2018-07-08T17:28:51.303Z,39.55
2018-07-08T17:29:51.320Z,39.53
2018-07-08T17:30:51.329Z,39.43
2018-07-08T17:32:51.432Z,39.65
2018-07-08T17:33:51.386Z,39.75
2018-07-08T17:34:51.393Z,40.03
2018-07-08T17:35:51.413Z,39.82
2018-07-08T17:36:51.427Z,40.41
2018-07-08T17:37:51.443Z,40.79
2018-07-08T17:38:51.468Z,40.29
2018-07-08T17:39:51.476Z,40.58
2018-07-08T17:40:51.519Z,40.77
2018-07-08T17:41:51.499Z,40.67
2018-07-08T17:42:51.515Z,40.48
2018-07-08T17:43:51.535Z,41.06
2018-07-08T17:45:51.574Z,41.05
2018-07-08T17:46:51.577Z,41.06
2018-07-08T17:47:51.599Z,40.87
2018-07-08T17:48:51.617Z,41.05
2018-07-08T17:51:20.982Z,41.05
2018-07-08T18:01:55.268Z,40.67
2018-07-08T18:02:55.273Z,40.95
2018-07-08T18:03:55.283Z,41.53
2018-07-08T18:04:55.302Z,41.63
2018-07-08T18:05:55.324Z,42.09
2018-07-08T18:06:55.349Z,42.40
2018-07-08T18:07:55.356Z,42.50
2018-07-08T18:08:55.396Z,42.40
2018-07-08T18:09:55.384Z,42.11
2018-07-08T18:10:55.392Z,42.50
2018-07-08T18:11:55.419Z,42.60
2018-07-08T18:12:55.478Z,42.50
2018-07-08T18:13:55.451Z,42.50
2018-07-08T18:14:55.455Z,42.40
2018-07-08T18:15:55.464Z,42.57
2018-07-08T18:16:55.486Z,42.86
2018-07-08T18:17:55.503Z,42.57
2018-07-08T18:18:55.511Z,42.67
2018-07-08T18:19:55.537Z,42.57
2018-07-08T18:20:55.544Z,42.67
2018-07-08T18:21:55.561Z,42.77
2018-07-08T18:22:55.575Z,42.86
2018-07-08T18:23:55.582Z,43.16
2018-07-08T18:24:55.620Z,42.86
2018-07-08T18:25:55.631Z,42.77
2018-07-08T18:26:55.647Z,43.13
2018-07-08T18:27:55.736Z,43.43
2018-07-08T18:28:55.666Z,43.43
2018-07-08T18:29:55.697Z,43.43
2018-07-08T18:30:55.695Z,43.33
2018-07-08T18:31:55.761Z,44.10
2018-07-08T18:32:55.730Z,44.30
2018-07-08T18:33:55.741Z,43.72
2018-07-08T18:34:55.763Z,44.27
2018-07-08T18:35:55.781Z,44.37
2018-07-08T18:36:55.787Z,44.76
2018-07-08T18:37:55.841Z,45.25
2018-07-08T18:38:55.813Z,44.68
2018-07-08T18:39:55.824Z,45.05
2018-07-08T18:40:55.843Z,45.34
2018-07-08T18:41:55.864Z,45.25
2018-07-08T18:42:55.880Z,45.83
2018-07-08T18:43:55.880Z,45.54
2018-07-08T18:44:55.899Z,45.73
2018-07-08T18:45:55.915Z,46.02
2018-07-08T18:46:55.932Z,45.73
2018-07-08T18:47:55.938Z,46.12
2018-07-08T18:49:55.966Z,46.02
2018-07-08T18:50:55.988Z,46.12
2018-07-08T18:51:56.002Z,45.92
2018-07-08T18:52:56.025Z,46.12
2018-07-08T18:53:56.028Z,46.41
2018-07-08T18:54:56.051Z,46.89
2018-07-08T18:55:56.052Z,47.09
2018-07-08T18:56:56.075Z,46.51
2018-07-08T18:57:56.085Z,46.89
2018-07-08T18:58:56.104Z,46.67
2018-07-08T18:59:56.119Z,46.67
2018-07-08T19:00:56.132Z,47.06
2018-07-08T19:01:56.145Z,47.26
2018-07-08T19:02:56.165Z,47.94
2018-07-08T19:03:56.172Z,47.94
2018-07-08T19:04:56.196Z,47.94
2018-07-08T19:05:56.220Z,48.71
2018-07-08T19:06:56.226Z,48.88
2018-07-08T19:07:56.231Z,48.79
2018-07-08T19:08:56.258Z,49.07
2018-07-08T19:09:56.265Z,49.17
2018-07-08T19:10:56.269Z,49.56
2018-07-08T19:11:56.281Z,49.07
2018-07-08T19:12:56.306Z,49.75
2018-07-08T19:13:56.326Z,49.85
2018-07-08T19:14:56.338Z,49.56
2018-07-08T19:15:56.351Z,50.02
2018-07-08T19:16:56.352Z,50.33
2018-07-08T19:17:56.425Z,49.95
2018-07-08T19:18:56.385Z,50.21
2018-07-08T19:19:56.409Z,50.50
2018-07-08T19:20:56.431Z,50.60
2018-07-08T19:21:56.427Z,50.50
2018-07-08T19:22:56.438Z,50.98
2018-07-08T19:23:56.461Z,51.28
2018-07-08T19:24:56.479Z,51.47
2018-07-08T19:25:56.486Z,51.66
2018-07-08T19:26:56.557Z,51.66
2018-07-08T19:27:56.521Z,51.56
2018-07-08T19:28:56.529Z,51.47
2018-07-08T19:29:56.545Z,51.56
2018-07-08T19:30:56.556Z,51.56
2018-07-08T19:31:56.576Z,52.05
2018-07-08T19:32:56.588Z,52.05
2018-07-08T19:33:56.599Z,52.61
2018-07-08T19:34:56.624Z,52.80
2018-07-08T19:35:56.625Z,53.19
2018-07-08T19:36:56.642Z,52.89
2018-07-08T19:37:56.657Z,53.09
2018-07-08T19:38:56.665Z,53.77
2018-07-08T19:39:56.686Z,53.57
2018-07-08T19:40:56.691Z,53.96
2018-07-08T19:41:56.714Z,53.64
2018-07-08T19:42:56.726Z,54.05
2018-07-08T19:43:56.736Z,53.74
2018-07-08T19:44:56.746Z,53.83
2018-07-08T19:45:56.758Z,54.13
2018-07-08T19:46:56.800Z,54.71
2018-07-08T19:47:56.789Z,54.90
2018-07-08T19:48:56.806Z,54.80
2018-07-08T19:49:56.827Z,54.80
2018-07-08T19:50:56.839Z,54.71
2018-07-08T19:51:56.851Z,55.19
2018-07-08T19:52:56.862Z,54.80
2018-07-08T19:53:56.861Z,54.90
2018-07-08T19:54:56.889Z,54.99
2018-07-08T19:55:56.906Z,55.07
2018-07-08T19:56:56.906Z,55.07
2018-07-08T19:57:56.929Z,55.16
2018-07-08T19:58:56.990Z,54.97
2018-07-08T19:59:56.947Z,55.74
2018-07-08T20:00:56.962Z,55.83
2018-07-08T20:01:56.976Z,55.35
2018-07-08T20:02:56.986Z,55.35
2018-07-08T20:03:57.007Z,55.74
2018-07-08T20:05:57.042Z,55.93
2018-07-08T20:06:57.040Z,56.20
2018-07-08T20:07:57.070Z,56.41
2018-07-08T20:08:57.083Z,56.10
2018-07-08T20:09:57.099Z,56.10
2018-07-08T20:10:57.102Z,56.48
2018-07-08T20:11:57.115Z,56.48
2018-07-08T20:12:57.120Z,56.00
2018-07-08T20:13:57.163Z,56.87
2018-07-08T20:14:57.151Z,56.77
2018-07-08T20:15:57.166Z,56.77
2018-07-08T20:16:57.171Z,56.58
2018-07-08T20:17:57.200Z,56.39
2018-07-08T20:18:57.208Z,56.96
2018-07-08T20:19:57.229Z,57.16
2018-07-08T20:20:57.252Z,57.35
2018-07-08T20:21:57.247Z,57.45
2018-07-08T20:22:57.336Z,57.35
2018-07-08T20:23:57.283Z,57.35
2018-07-08T20:24:57.289Z,57.42
2018-07-08T20:25:57.308Z,57.23
2018-07-08T20:26:57.313Z,57.23
2018-07-08T20:27:57.333Z,57.23
2018-07-08T20:28:57.333Z,57.32
2018-07-08T20:29:57.353Z,57.42
2018-07-08T20:30:57.358Z,57.23
2018-07-08T20:31:57.376Z,58.00
2018-07-08T20:32:57.390Z,57.90
2018-07-08T20:33:57.400Z,58.00
2018-07-08T20:34:57.419Z,58.19
2018-07-08T20:35:57.435Z,58.10
2018-07-08T20:36:57.443Z,58.48
2018-07-08T20:37:57.478Z,58.55
2018-07-08T20:38:57.510Z,58.84
2018-07-08T20:39:57.490Z,59.42
2018-07-08T20:40:57.502Z,59.52
2018-07-08T20:41:57.517Z,59.80
2018-07-08T20:42:57.514Z,59.52
2018-07-08T20:43:57.548Z,60.00
2018-07-08T20:44:57.546Z,59.52
2018-07-08T20:45:57.562Z,59.78
2018-07-08T20:47:57.649Z,59.68
2018-07-08T20:48:57.594Z,59.39
2018-07-08T20:49:57.618Z,60.06
2018-07-08T20:50:57.647Z,59.97
2018-07-08T20:51:57.636Z,59.87
2018-07-08T20:52:57.650Z,60.45
2018-07-08T20:53:57.659Z,60.45
2018-07-08T20:54:57.669Z,60.45
2018-07-08T20:55:57.689Z,60.45
2018-07-08T20:56:57.711Z,61.03
2018-07-08T20:57:57.712Z,60.64
2018-07-08T20:58:57.730Z,60.45
2018-07-08T20:59:57.742Z,60.74
2018-07-08T21:00:57.760Z,60.74
2018-07-08T21:01:57.771Z,60.64
2018-07-08T21:02:57.786Z,60.74
2018-07-08T21:03:57.789Z,60.55
2018-07-08T21:04:57.804Z,60.93
2018-07-08T21:05:57.812Z,60.90
2018-07-08T21:06:57.832Z,60.83
2018-07-08T21:07:57.853Z,61.10
2018-07-08T21:08:57.860Z,61.29
2018-07-08T21:09:57.861Z,61.48
2018-07-08T21:10:57.880Z,61.58
2018-07-08T21:11:57.978Z,61.10
2018-07-08T21:14:57.958Z,61.58
2018-07-08T21:15:57.944Z,61.68
2018-07-08T21:16:57.964Z,61.48
2018-07-08T21:17:57.971Z,62.15
2018-07-08T21:18:57.994Z,61.96
2018-07-08T21:19:58.014Z,62.15
2018-07-08T21:20:58.005Z,62.32
2018-07-08T21:21:58.020Z,62.25
2018-07-08T21:22:58.044Z,62.45
2018-07-08T21:23:58.054Z,62.32
2018-07-08T21:24:58.054Z,62.12
2018-07-08T21:25:58.072Z,62.35
2018-07-08T21:26:58.076Z,62.25
2018-07-08T21:27:58.103Z,62.22
2018-07-08T21:28:58.095Z,62.41
2018-07-08T21:29:58.127Z,62.41
2018-07-08T21:30:58.130Z,62.80
2018-07-08T21:31:58.131Z,63.09
2018-07-08T21:32:58.152Z,62.80
2018-07-08T21:33:58.195Z,62.99
2018-07-08T21:34:58.177Z,63.18
2018-07-08T21:35:58.192Z,63.18
2018-07-08T21:36:58.222Z,63.47
2018-07-08T21:37:58.218Z,63.67
2018-07-08T21:38:58.227Z,63.57
2018-07-08T21:39:58.243Z,63.76
2018-07-08T21:40:58.256Z,63.85
2018-07-08T21:41:58.270Z,63.54
2018-07-08T21:42:58.274Z,63.73
2018-07-08T21:43:58.288Z,63.67
2018-07-08T21:44:58.316Z,63.73
2018-07-08T21:45:58.311Z,63.85
2018-07-08T21:46:58.339Z,63.64
2018-07-08T21:47:58.339Z,63.67
2018-07-08T21:48:58.351Z,63.76
2018-07-08T21:49:58.365Z,63.67
2018-07-08T21:50:58.380Z,63.67
2018-07-08T21:51:58.388Z,64.25
2018-07-08T21:52:58.400Z,64.40
2018-07-08T21:53:58.422Z,63.92
2018-07-08T21:54:58.423Z,64.21
2018-07-08T21:55:58.439Z,64.21
2018-07-08T21:56:58.467Z,64.40
2018-07-08T21:57:58.481Z,65.08
2018-07-08T21:58:58.473Z,64.79
2018-07-08T21:59:58.505Z,65.17
2018-07-08T22:00:58.513Z,65.27
2018-07-08T22:01:58.509Z,65.27
2018-07-08T22:02:58.523Z,65.37
2018-07-08T22:03:58.543Z,65.43
2018-07-08T22:04:58.543Z,65.63
2018-07-08T22:05:58.554Z,65.33
2018-07-08T22:06:58.564Z,65.53
2018-07-08T22:07:58.590Z,65.81
2018-07-08T22:08:58.600Z,65.63
2018-07-08T22:09:58.608Z,65.81
2018-07-08T22:10:58.621Z,66.10
2018-07-08T22:11:58.634Z,66.39
2018-07-08T22:12:58.659Z,66.10
2018-07-08T22:13:58.652Z,66.10
2018-07-08T22:14:58.668Z,66.20
2018-07-08T22:15:58.678Z,66.30
2018-07-08T22:16:58.696Z,66.01
2018-07-08T22:17:58.714Z,66.58
2018-07-08T22:18:58.716Z,66.58
2018-07-08T22:19:58.731Z,66.39
2018-07-08T22:20:58.739Z,66.68
2018-07-08T22:21:58.754Z,66.49
2018-07-08T22:22:58.776Z,66.74
2018-07-08T22:23:58.776Z,66.97
2018-07-08T22:24:58.792Z,66.68
2018-07-08T22:25:58.796Z,66.65
2018-07-08T22:26:58.815Z,66.78
2018-07-08T22:27:58.826Z,67.13
2018-07-08T22:28:58.846Z,66.74
2018-07-08T22:29:58.848Z,66.65
2018-07-08T22:30:58.857Z,66.55
2018-07-08T22:31:58.873Z,66.65
2018-07-08T22:32:58.894Z,67.03
2018-07-08T22:33:58.897Z,66.17
2018-07-08T22:34:58.907Z,66.65
2018-07-08T22:35:58.920Z,66.65
2018-07-08T22:36:58.933Z,66.65
2018-07-08T22:37:58.949Z,66.65
2018-07-08T22:38:58.951Z,66.65
2018-07-08T22:39:58.961Z,67.13
2018-07-08T22:40:59.003Z,67.13
2018-07-08T22:41:58.997Z,67.03
2018-07-08T22:42:59.003Z,67.22
2018-07-08T22:43:59.021Z,67.51
2018-07-08T22:44:59.032Z,67.71
2018-07-08T22:45:59.051Z,67.61
2018-07-08T22:46:59.052Z,67.51
2018-07-08T22:47:59.063Z,67.90
2018-07-08T22:48:59.080Z,67.80
2018-07-08T22:49:59.091Z,68.06
2018-07-08T22:50:59.095Z,68.15
2018-07-08T22:51:59.110Z,68.35
2018-07-08T22:52:59.132Z,68.63
2018-07-08T22:53:59.142Z,68.44
2018-07-08T22:54:59.145Z,68.29
2018-07-08T22:55:59.152Z,68.54
2018-07-08T22:56:59.171Z,68.35
2018-07-08T22:57:59.181Z,68.63
2018-07-08T22:58:59.196Z,68.73
2018-07-08T22:59:59.201Z,68.63
2018-07-08T23:00:59.224Z,68.83
2018-07-08T23:01:59.254Z,69.21
2018-07-08T23:02:59.239Z,69.12
2018-07-08T23:03:59.250Z,69.60
2018-07-08T23:04:59.272Z,69.50
2018-07-08T23:05:59.284Z,69.46
2018-07-08T23:06:59.280Z,69.60
2018-07-08T23:07:59.304Z,69.60
2018-07-08T23:08:59.306Z,69.12
2018-07-08T23:09:59.325Z,69.12
2018-07-08T23:10:59.340Z,69.60
2018-07-08T23:11:59.352Z,69.60
2018-07-08T23:12:59.355Z,69.60
2018-07-08T23:13:59.517Z,68.89
2018-07-08T23:14:59.387Z,69.56
2018-07-08T23:15:59.394Z,69.46
2018-07-08T23:16:59.401Z,69.18
2018-07-08T23:17:59.410Z,69.66
2018-07-08T23:18:59.426Z,69.56
2018-07-08T23:19:59.444Z,70.23
2018-07-08T23:20:59.449Z,70.04
2018-07-08T23:21:59.549Z,69.37
2018-07-08T23:22:59.471Z,69.85
2018-07-08T23:23:59.487Z,69.85
2018-07-08T23:24:59.497Z,70.14
2018-07-08T23:25:59.570Z,70.23
2018-07-08T23:26:59.511Z,70.04
2018-07-08T23:27:59.535Z,70.33
2018-07-08T23:28:59.539Z,70.52
2018-07-08T23:29:59.557Z,70.39
2018-07-08T23:30:59.566Z,70.68
2018-07-08T23:31:59.573Z,70.49
2018-07-08T23:32:59.589Z,70.68
2018-07-08T23:33:59.598Z,70.33
2018-07-08T23:34:59.612Z,70.29
2018-07-08T23:35:59.622Z,70.49
2018-07-08T23:36:59.644Z,70.81
2018-07-08T23:37:59.646Z,70.29
2018-07-08T23:38:59.658Z,70.78
2018-07-08T23:39:59.675Z,70.78
2018-07-08T23:40:59.691Z,70.78
2018-07-08T23:41:59.752Z,70.87
2018-07-08T23:42:59.700Z,71.06
2018-07-08T23:43:59.707Z,71.16
2018-07-08T23:44:59.754Z,71.16
2018-07-08T23:45:59.732Z,71.35
2018-07-08T23:46:59.743Z,71.64
2018-07-08T23:47:59.760Z,71.45
2018-07-08T23:48:59.779Z,71.64
2018-07-08T23:49:59.795Z,71.55
2018-07-08T23:50:59.804Z,71.64
2018-07-08T23:51:59.811Z,71.73
2018-07-08T23:52:59.811Z,71.73
2018-07-08T23:53:59.830Z,71.64
2018-07-08T23:54:59.843Z,71.83
2018-07-08T23:55:59.863Z,71.64
2018-07-08T23:56:59.860Z,71.55
2018-07-08T23:57:59.872Z,71.35
2018-07-08T23:58:59.885Z,71.61
2018-07-08T23:59:59.886Z,71.55
